sensor_id;sensor_type;location;lat;lon;timestamp;P1;durP1;ratioP1;P2;durP2;ratioP2
26040;SDS011;13816;53.628;9.950;2023-04-15T00:02:26;5.60;;;4.80;;
26040;SDS011;13816;53.628;9.950;2023-04-15T00:04:53;5.10;;;4.60;;
26040;SDS011;13816;53.628;9.950;2023-04-15T00:07:21;5.00;;;4.50;;
26040;SDS011;13816;53.628;9.950;2023-04-15T00:09:48;6.37;;;5.17;;
26040;SDS011;13816;53.628;9.950;2023-04-15T00:12:20;6.03;;;5.23;;
26040;SDS011;13816;53.628;9.950;2023-04-15T00:14:47;4.40;;;4.00;;
26040;SDS011;13816;53.628;9.950;2023-04-15T00:17:15;6.07;;;4.30;;
26040;SDS011;13816;53.628;9.950;2023-04-15T00:19:43;4.60;;;3.60;;
26040;SDS011;13816;53.628;9.950;2023-04-15T00:22:11;5.00;;;4.50;;
26040;SDS011;13816;53.628;9.950;2023-04-15T00:24:39;6.77;;;4.40;;
26040;SDS011;13816;53.628;9.950;2023-04-15T00:27:06;6.43;;;4.27;;
26040;SDS011;13816;53.628;9.950;2023-04-15T00:29:34;4.70;;;4.17;;
26040;SDS011;13816;53.628;9.950;2023-04-15T00:32:01;6.00;;;5.13;;
26040;SDS011;13816;53.628;9.950;2023-04-15T00:34:29;4.97;;;4.30;;
26040;SDS011;13816;53.628;9.950;2023-04-15T00:36:56;7.90;;;4.93;;
26040;SDS011;13816;53.628;9.950;2023-04-15T00:39:24;6.83;;;4.63;;
26040;SDS011;13816;53.628;9.950;2023-04-15T00:41:51;5.50;;;4.80;;
26040;SDS011;13816;53.628;9.950;2023-04-15T00:44:19;5.80;;;4.90;;
26040;SDS011;13816;53.628;9.950;2023-04-15T00:46:46;5.30;;;4.80;;
26040;SDS011;13816;53.628;9.950;2023-04-15T00:49:14;6.03;;;4.90;;
26040;SDS011;13816;53.628;9.950;2023-04-15T00:51:43;6.67;;;4.40;;
26040;SDS011;13816;53.628;9.950;2023-04-15T00:54:11;7.97;;;5.50;;
26040;SDS011;13816;53.628;9.950;2023-04-15T00:56:39;9.70;;;5.80;;
26040;SDS011;13816;53.628;9.950;2023-04-15T00:59:07;6.40;;;5.50;;
26040;SDS011;13816;53.628;9.950;2023-04-15T01:01:35;9.20;;;5.70;;
26040;SDS011;13816;53.628;9.950;2023-04-15T01:04:03;6.73;;;5.17;;
26040;SDS011;13816;53.628;9.950;2023-04-15T01:06:32;6.80;;;5.63;;
26040;SDS011;13816;53.628;9.950;2023-04-15T01:09:00;7.43;;;6.20;;
26040;SDS011;13816;53.628;9.950;2023-04-15T01:11:28;8.17;;;5.53;;
26040;SDS011;13816;53.628;9.950;2023-04-15T01:13:57;6.50;;;5.80;;
26040;SDS011;13816;53.628;9.950;2023-04-15T01:16:25;7.77;;;6.07;;
26040;SDS011;13816;53.628;9.950;2023-04-15T01:18:54;8.67;;;6.20;;
26040;SDS011;13816;53.628;9.950;2023-04-15T01:21:22;8.20;;;5.30;;
26040;SDS011;13816;53.628;9.950;2023-04-15T01:23:49;6.03;;;5.13;;
26040;SDS011;13816;53.628;9.950;2023-04-15T01:26:17;5.90;;;4.83;;
26040;SDS011;13816;53.628;9.950;2023-04-15T01:28:44;7.07;;;6.07;;
26040;SDS011;13816;53.628;9.950;2023-04-15T01:31:12;6.40;;;5.80;;
26040;SDS011;13816;53.628;9.950;2023-04-15T01:33:40;7.40;;;6.03;;
26040;SDS011;13816;53.628;9.950;2023-04-15T01:36:26;8.67;;;6.50;;
26040;SDS011;13816;53.628;9.950;2023-04-15T01:38:55;7.53;;;6.47;;
26040;SDS011;13816;53.628;9.950;2023-04-15T01:41:26;12.40;;;6.83;;
26040;SDS011;13816;53.628;9.950;2023-04-15T01:43:55;7.63;;;6.83;;
26040;SDS011;13816;53.628;9.950;2023-04-15T01:46:24;7.63;;;6.30;;
26040;SDS011;13816;53.628;9.950;2023-04-15T01:48:53;7.20;;;6.43;;
26040;SDS011;13816;53.628;9.950;2023-04-15T01:51:22;7.40;;;6.60;;
26040;SDS011;13816;53.628;9.950;2023-04-15T01:53:52;7.03;;;6.30;;
26040;SDS011;13816;53.628;9.950;2023-04-15T01:56:23;8.13;;;6.20;;
26040;SDS011;13816;53.628;9.950;2023-04-15T01:58:52;9.13;;;6.90;;
26040;SDS011;13816;53.628;9.950;2023-04-15T02:01:20;8.57;;;6.37;;
26040;SDS011;13816;53.628;9.950;2023-04-15T02:03:49;7.37;;;6.60;;
26040;SDS011;13816;53.628;9.950;2023-04-15T02:06:18;8.60;;;6.40;;
26040;SDS011;13816;53.628;9.950;2023-04-15T02:08:48;8.33;;;6.50;;
26040;SDS011;13816;53.628;9.950;2023-04-15T02:11:16;7.23;;;6.13;;
26040;SDS011;13816;53.628;9.950;2023-04-15T02:13:49;8.20;;;6.27;;
26040;SDS011;13816;53.628;9.950;2023-04-15T02:16:19;8.13;;;6.60;;
26040;SDS011;13816;53.628;9.950;2023-04-15T02:18:47;6.60;;;6.00;;
26040;SDS011;13816;53.628;9.950;2023-04-15T02:21:18;7.57;;;6.70;;
26040;SDS011;13816;53.628;9.950;2023-04-15T02:23:47;9.97;;;6.90;;
26040;SDS011;13816;53.628;9.950;2023-04-15T02:26:15;8.27;;;7.33;;
26040;SDS011;13816;53.628;9.950;2023-04-15T02:28:45;6.90;;;6.20;;
26040;SDS011;13816;53.628;9.950;2023-04-15T02:31:14;7.33;;;6.60;;
26040;SDS011;13816;53.628;9.950;2023-04-15T02:33:43;9.17;;;6.83;;
26040;SDS011;13816;53.628;9.950;2023-04-15T02:36:12;7.90;;;6.93;;
26040;SDS011;13816;53.628;9.950;2023-04-15T02:38:59;9.43;;;6.73;;
26040;SDS011;13816;53.628;9.950;2023-04-15T02:41:29;8.80;;;7.43;;
26040;SDS011;13816;53.628;9.950;2023-04-15T02:43:58;8.50;;;7.40;;
26040;SDS011;13816;53.628;9.950;2023-04-15T02:46:28;7.83;;;6.60;;
26040;SDS011;13816;53.628;9.950;2023-04-15T02:48:56;8.17;;;7.37;;
26040;SDS011;13816;53.628;9.950;2023-04-15T02:51:28;11.77;;;8.13;;
26040;SDS011;13816;53.628;9.950;2023-04-15T02:54:00;8.80;;;7.33;;
26040;SDS011;13816;53.628;9.950;2023-04-15T02:56:29;9.60;;;7.50;;
26040;SDS011;13816;53.628;9.950;2023-04-15T02:58:57;8.00;;;6.87;;
26040;SDS011;13816;53.628;9.950;2023-04-15T03:01:26;9.07;;;7.53;;
26040;SDS011;13816;53.628;9.950;2023-04-15T03:03:55;10.40;;;7.93;;
26040;SDS011;13816;53.628;9.950;2023-04-15T03:06:24;10.60;;;7.90;;
26040;SDS011;13816;53.628;9.950;2023-04-15T03:08:53;9.43;;;7.90;;
26040;SDS011;13816;53.628;9.950;2023-04-15T03:11:23;15.63;;;8.20;;
26040;SDS011;13816;53.628;9.950;2023-04-15T03:13:53;9.63;;;8.63;;
26040;SDS011;13816;53.628;9.950;2023-04-15T03:16:28;10.23;;;8.97;;
26040;SDS011;13816;53.628;9.950;2023-04-15T03:18:58;10.83;;;9.10;;
26040;SDS011;13816;53.628;9.950;2023-04-15T03:21:27;10.77;;;8.70;;
26040;SDS011;13816;53.628;9.950;2023-04-15T03:23:56;11.13;;;8.67;;
26040;SDS011;13816;53.628;9.950;2023-04-15T03:26:28;11.17;;;9.37;;
26040;SDS011;13816;53.628;9.950;2023-04-15T03:29:09;12.40;;;9.20;;
26040;SDS011;13816;53.628;9.950;2023-04-15T03:31:40;13.00;;;10.70;;
26040;SDS011;13816;53.628;9.950;2023-04-15T03:34:09;11.07;;;8.90;;
26040;SDS011;13816;53.628;9.950;2023-04-15T03:36:37;11.67;;;9.40;;
26040;SDS011;13816;53.628;9.950;2023-04-15T03:39:06;14.43;;;10.10;;
26040;SDS011;13816;53.628;9.950;2023-04-15T03:41:38;14.63;;;11.60;;
26040;SDS011;13816;53.628;9.950;2023-04-15T03:44:07;12.47;;;9.60;;
26040;SDS011;13816;53.628;9.950;2023-04-15T03:46:36;16.37;;;11.80;;
26040;SDS011;13816;53.628;9.950;2023-04-15T03:49:08;18.43;;;12.60;;
26040;SDS011;13816;53.628;9.950;2023-04-15T03:51:36;17.07;;;12.47;;
26040;SDS011;13816;53.628;9.950;2023-04-15T03:54:05;17.40;;;12.47;;
26040;SDS011;13816;53.628;9.950;2023-04-15T03:56:34;19.43;;;13.20;;
26040;SDS011;13816;53.628;9.950;2023-04-15T03:59:03;19.77;;;13.67;;
26040;SDS011;13816;53.628;9.950;2023-04-15T04:01:34;18.53;;;13.10;;
26040;SDS011;13816;53.628;9.950;2023-04-15T04:04:03;17.47;;;13.33;;
26040;SDS011;13816;53.628;9.950;2023-04-15T04:06:32;19.37;;;14.57;;
26040;SDS011;13816;53.628;9.950;2023-04-15T04:09:01;24.23;;;16.10;;
26040;SDS011;13816;53.628;9.950;2023-04-15T04:11:30;25.60;;;15.77;;
26040;SDS011;13816;53.628;9.950;2023-04-15T04:13:59;23.03;;;15.63;;
26040;SDS011;13816;53.628;9.950;2023-04-15T04:16:36;20.20;;;14.90;;
26040;SDS011;13816;53.628;9.950;2023-04-15T04:19:05;20.00;;;15.57;;
26040;SDS011;13816;53.628;9.950;2023-04-15T04:21:37;22.20;;;16.00;;
26040;SDS011;13816;53.628;9.950;2023-04-15T04:24:06;22.87;;;16.00;;
26040;SDS011;13816;53.628;9.950;2023-04-15T04:26:35;24.50;;;15.30;;
26040;SDS011;13816;53.628;9.950;2023-04-15T04:29:03;23.00;;;16.73;;
26040;SDS011;13816;53.628;9.950;2023-04-15T04:31:35;26.70;;;17.90;;
26040;SDS011;13816;53.628;9.950;2023-04-15T04:34:07;24.83;;;16.93;;
26040;SDS011;13816;53.628;9.950;2023-04-15T04:36:36;24.40;;;17.30;;
26040;SDS011;13816;53.628;9.950;2023-04-15T04:39:05;26.80;;;18.10;;
26040;SDS011;13816;53.628;9.950;2023-04-15T04:41:33;24.33;;;18.20;;
26040;SDS011;13816;53.628;9.950;2023-04-15T04:44:04;29.10;;;18.63;;
26040;SDS011;13816;53.628;9.950;2023-04-15T04:46:33;27.17;;;18.93;;
26040;SDS011;13816;53.628;9.950;2023-04-15T04:49:02;28.83;;;20.03;;
26040;SDS011;13816;53.628;9.950;2023-04-15T04:51:31;29.00;;;18.57;;
26040;SDS011;13816;53.628;9.950;2023-04-15T04:54:00;26.93;;;18.77;;
26040;SDS011;13816;53.628;9.950;2023-04-15T04:56:30;29.47;;;19.43;;
26040;SDS011;13816;53.628;9.950;2023-04-15T04:59:00;27.47;;;18.70;;
26040;SDS011;13816;53.628;9.950;2023-04-15T05:01:29;31.60;;;20.83;;
26040;SDS011;13816;53.628;9.950;2023-04-15T05:03:58;31.07;;;20.63;;
26040;SDS011;13816;53.628;9.950;2023-04-15T05:06:27;34.90;;;21.40;;
26040;SDS011;13816;53.628;9.950;2023-04-15T05:08:57;32.80;;;22.30;;
26040;SDS011;13816;53.628;9.950;2023-04-15T05:11:30;34.93;;;21.80;;
26040;SDS011;13816;53.628;9.950;2023-04-15T05:14:01;33.93;;;22.80;;
26040;SDS011;13816;53.628;9.950;2023-04-15T05:16:29;35.03;;;23.17;;
26040;SDS011;13816;53.628;9.950;2023-04-15T05:18:58;38.03;;;24.00;;
26040;SDS011;13816;53.628;9.950;2023-04-15T05:21:27;38.27;;;23.67;;
26040;SDS011;13816;53.628;9.950;2023-04-15T05:23:56;38.20;;;23.23;;
26040;SDS011;13816;53.628;9.950;2023-04-15T05:26:24;35.70;;;24.40;;
26040;SDS011;13816;53.628;9.950;2023-04-15T05:28:54;37.73;;;24.47;;
26040;SDS011;13816;53.628;9.950;2023-04-15T05:31:25;37.97;;;24.33;;
26040;SDS011;13816;53.628;9.950;2023-04-15T05:33:55;40.27;;;25.53;;
26040;SDS011;13816;53.628;9.950;2023-04-15T05:36:27;35.80;;;22.27;;
26040;SDS011;13816;53.628;9.950;2023-04-15T05:38:55;31.27;;;21.93;;
26040;SDS011;13816;53.628;9.950;2023-04-15T05:41:24;32.70;;;23.27;;
26040;SDS011;13816;53.628;9.950;2023-04-15T05:43:53;39.70;;;24.50;;
26040;SDS011;13816;53.628;9.950;2023-04-15T05:46:21;37.97;;;23.10;;
26040;SDS011;13816;53.628;9.950;2023-04-15T05:48:50;39.07;;;23.47;;
26040;SDS011;13816;53.628;9.950;2023-04-15T05:51:20;36.13;;;23.53;;
26040;SDS011;13816;53.628;9.950;2023-04-15T05:53:52;33.33;;;21.73;;
26040;SDS011;13816;53.628;9.950;2023-04-15T05:56:20;39.03;;;24.60;;
26040;SDS011;13816;53.628;9.950;2023-04-15T05:58:49;35.63;;;23.93;;
26040;SDS011;13816;53.628;9.950;2023-04-15T06:01:20;38.67;;;26.00;;
26040;SDS011;13816;53.628;9.950;2023-04-15T06:03:49;39.30;;;25.23;;
26040;SDS011;13816;53.628;9.950;2023-04-15T06:06:18;42.30;;;24.90;;
26040;SDS011;13816;53.628;9.950;2023-04-15T06:08:47;35.23;;;23.43;;
26040;SDS011;13816;53.628;9.950;2023-04-15T06:11:16;37.00;;;24.67;;
26040;SDS011;13816;53.628;9.950;2023-04-15T06:13:48;41.43;;;25.10;;
26040;SDS011;13816;53.628;9.950;2023-04-15T06:16:19;37.47;;;25.43;;
26040;SDS011;13816;53.628;9.950;2023-04-15T06:18:49;37.70;;;25.73;;
26040;SDS011;13816;53.628;9.950;2023-04-15T06:21:18;40.47;;;26.30;;
26040;SDS011;13816;53.628;9.950;2023-04-15T06:23:47;41.87;;;25.57;;
26040;SDS011;13816;53.628;9.950;2023-04-15T06:26:18;44.43;;;27.00;;
26040;SDS011;13816;53.628;9.950;2023-04-15T06:28:47;38.43;;;25.60;;
26040;SDS011;13816;53.628;9.950;2023-04-15T06:31:16;44.00;;;28.30;;
26040;SDS011;13816;53.628;9.950;2023-04-15T06:33:44;50.23;;;28.67;;
26040;SDS011;13816;53.628;9.950;2023-04-15T06:36:13;48.67;;;28.57;;
26040;SDS011;13816;53.628;9.950;2023-04-15T06:38:43;50.27;;;31.03;;
26040;SDS011;13816;53.628;9.950;2023-04-15T06:41:12;47.37;;;30.17;;
26040;SDS011;13816;53.628;9.950;2023-04-15T06:43:41;49.10;;;31.80;;
26040;SDS011;13816;53.628;9.950;2023-04-15T06:46:10;45.57;;;30.87;;
26040;SDS011;13816;53.628;9.950;2023-04-15T06:48:39;56.80;;;32.70;;
26040;SDS011;13816;53.628;9.950;2023-04-15T06:51:08;49.27;;;30.40;;
26040;SDS011;13816;53.628;9.950;2023-04-15T06:53:37;50.77;;;33.23;;
26040;SDS011;13816;53.628;9.950;2023-04-15T06:56:08;49.00;;;31.10;;
26040;SDS011;13816;53.628;9.950;2023-04-15T06:58:37;49.50;;;32.83;;
26040;SDS011;13816;53.628;9.950;2023-04-15T07:01:05;48.43;;;32.90;;
26040;SDS011;13816;53.628;9.950;2023-04-15T07:03:34;49.60;;;32.43;;
26040;SDS011;13816;53.628;9.950;2023-04-15T07:06:03;54.60;;;33.43;;
26040;SDS011;13816;53.628;9.950;2023-04-15T07:08:34;57.77;;;34.40;;
26040;SDS011;13816;53.628;9.950;2023-04-15T07:11:02;49.93;;;33.00;;
26040;SDS011;13816;53.628;9.950;2023-04-15T07:13:31;56.47;;;34.50;;
26040;SDS011;13816;53.628;9.950;2023-04-15T07:16:00;52.33;;;34.20;;
26040;SDS011;13816;53.628;9.950;2023-04-15T07:18:28;56.03;;;34.83;;
26040;SDS011;13816;53.628;9.950;2023-04-15T07:20:57;51.00;;;35.73;;
26040;SDS011;13816;53.628;9.950;2023-04-15T07:23:26;52.73;;;34.00;;
26040;SDS011;13816;53.628;9.950;2023-04-15T07:25:56;56.27;;;35.40;;
26040;SDS011;13816;53.628;9.950;2023-04-15T07:28:35;54.20;;;35.40;;
26040;SDS011;13816;53.628;9.950;2023-04-15T07:31:07;63.97;;;37.67;;
26040;SDS011;13816;53.628;9.950;2023-04-15T07:33:36;59.40;;;37.10;;
26040;SDS011;13816;53.628;9.950;2023-04-15T07:36:05;66.20;;;37.60;;
26040;SDS011;13816;53.628;9.950;2023-04-15T07:38:33;53.10;;;35.20;;
26040;SDS011;13816;53.628;9.950;2023-04-15T07:41:02;59.73;;;37.20;;
26040;SDS011;13816;53.628;9.950;2023-04-15T07:43:31;60.47;;;36.97;;
26040;SDS011;13816;53.628;9.950;2023-04-15T07:46:00;65.83;;;38.43;;
26040;SDS011;13816;53.628;9.950;2023-04-15T07:48:28;53.77;;;36.87;;
26040;SDS011;13816;53.628;9.950;2023-04-15T07:50:58;63.70;;;37.80;;
26040;SDS011;13816;53.628;9.950;2023-04-15T07:53:27;62.50;;;39.50;;
26040;SDS011;13816;53.628;9.950;2023-04-15T07:55:55;63.87;;;39.70;;
26040;SDS011;13816;53.628;9.950;2023-04-15T07:58:24;61.83;;;37.47;;
26040;SDS011;13816;53.628;9.950;2023-04-15T08:00:54;58.13;;;37.30;;
26040;SDS011;13816;53.628;9.950;2023-04-15T08:03:22;63.70;;;39.03;;
26040;SDS011;13816;53.628;9.950;2023-04-15T08:05:51;63.80;;;40.27;;
26040;SDS011;13816;53.628;9.950;2023-04-15T08:08:21;59.50;;;37.80;;
26040;SDS011;13816;53.628;9.950;2023-04-15T08:10:49;62.73;;;38.70;;
26040;SDS011;13816;53.628;9.950;2023-04-15T08:13:19;60.17;;;38.53;;
26040;SDS011;13816;53.628;9.950;2023-04-15T08:15:52;57.27;;;38.97;;
26040;SDS011;13816;53.628;9.950;2023-04-15T08:18:21;50.27;;;36.23;;
26040;SDS011;13816;53.628;9.950;2023-04-15T08:20:50;57.50;;;38.20;;
26040;SDS011;13816;53.628;9.950;2023-04-15T08:23:18;59.80;;;38.73;;
26040;SDS011;13816;53.628;9.950;2023-04-15T08:25:47;57.10;;;37.03;;
26040;SDS011;13816;53.628;9.950;2023-04-15T08:28:16;55.23;;;38.53;;
26040;SDS011;13816;53.628;9.950;2023-04-15T08:30:44;67.80;;;41.57;;
26040;SDS011;13816;53.628;9.950;2023-04-15T08:33:13;63.33;;;40.50;;
26040;SDS011;13816;53.628;9.950;2023-04-15T08:35:42;63.37;;;39.27;;
26040;SDS011;13816;53.628;9.950;2023-04-15T08:38:11;59.33;;;40.07;;
26040;SDS011;13816;53.628;9.950;2023-04-15T08:40:40;57.93;;;38.30;;
26040;SDS011;13816;53.628;9.950;2023-04-15T08:43:23;57.37;;;38.70;;
26040;SDS011;13816;53.628;9.950;2023-04-15T08:45:55;63.20;;;38.33;;
26040;SDS011;13816;53.628;9.950;2023-04-15T08:48:31;50.37;;;34.43;;
26040;SDS011;13816;53.628;9.950;2023-04-15T08:51:00;57.07;;;37.30;;
26040;SDS011;13816;53.628;9.950;2023-04-15T08:53:29;56.10;;;35.37;;
26040;SDS011;13816;53.628;9.950;2023-04-15T08:56:03;55.20;;;37.27;;
26040;SDS011;13816;53.628;9.950;2023-04-15T08:58:34;53.43;;;35.43;;
26040;SDS011;13816;53.628;9.950;2023-04-15T09:01:03;55.90;;;37.03;;
26040;SDS011;13816;53.628;9.950;2023-04-15T09:03:32;52.50;;;34.63;;
26040;SDS011;13816;53.628;9.950;2023-04-15T09:06:03;55.77;;;38.17;;
26040;SDS011;13816;53.628;9.950;2023-04-15T09:08:32;58.33;;;36.00;;
26040;SDS011;13816;53.628;9.950;2023-04-15T09:11:02;52.37;;;35.70;;
26040;SDS011;13816;53.628;9.950;2023-04-15T09:13:31;57.63;;;36.13;;
26040;SDS011;13816;53.628;9.950;2023-04-15T09:16:03;59.07;;;40.07;;
26040;SDS011;13816;53.628;9.950;2023-04-15T09:18:37;64.93;;;38.57;;
26040;SDS011;13816;53.628;9.950;2023-04-15T09:21:06;59.47;;;40.17;;
26040;SDS011;13816;53.628;9.950;2023-04-15T09:23:55;55.17;;;36.80;;
26040;SDS011;13816;53.628;9.950;2023-04-15T09:26:40;57.60;;;36.80;;
26040;SDS011;13816;53.628;9.950;2023-04-15T09:29:10;53.57;;;35.63;;
26040;SDS011;13816;53.628;9.950;2023-04-15T09:31:41;54.47;;;37.07;;
26040;SDS011;13816;53.628;9.950;2023-04-15T09:34:10;55.80;;;36.20;;
26040;SDS011;13816;53.628;9.950;2023-04-15T09:39:18;59.80;;;36.97;;
26040;SDS011;13816;53.628;9.950;2023-04-15T09:42:04;52.83;;;35.37;;
26040;SDS011;13816;53.628;9.950;2023-04-15T09:44:33;52.50;;;36.20;;
26040;SDS011;13816;53.628;9.950;2023-04-15T09:47:02;50.57;;;33.93;;
26040;SDS011;13816;53.628;9.950;2023-04-15T09:49:31;52.37;;;35.40;;
26040;SDS011;13816;53.628;9.950;2023-04-15T09:52:00;48.97;;;32.27;;
26040;SDS011;13816;53.628;9.950;2023-04-15T09:54:36;51.93;;;33.70;;
26040;SDS011;13816;53.628;9.950;2023-04-15T09:57:06;52.57;;;34.30;;
26040;SDS011;13816;53.628;9.950;2023-04-15T09:59:35;50.00;;;33.93;;
26040;SDS011;13816;53.628;9.950;2023-04-15T10:02:04;50.40;;;33.03;;
26040;SDS011;13816;53.628;9.950;2023-04-15T10:04:34;51.43;;;33.13;;
26040;SDS011;13816;53.628;9.950;2023-04-15T10:07:04;43.37;;;30.93;;
26040;SDS011;13816;53.628;9.950;2023-04-15T10:09:34;52.30;;;31.30;;
26040;SDS011;13816;53.628;9.950;2023-04-15T10:12:03;41.00;;;29.40;;
26040;SDS011;13816;53.628;9.950;2023-04-15T10:14:33;42.53;;;29.93;;
26040;SDS011;13816;53.628;9.950;2023-04-15T10:17:02;42.40;;;31.27;;
26040;SDS011;13816;53.628;9.950;2023-04-15T10:19:32;41.73;;;30.73;;
26040;SDS011;13816;53.628;9.950;2023-04-15T10:22:01;37.90;;;29.60;;
26040;SDS011;13816;53.628;9.950;2023-04-15T10:24:32;41.33;;;30.13;;
26040;SDS011;13816;53.628;9.950;2023-04-15T10:27:04;42.90;;;29.70;;
26040;SDS011;13816;53.628;9.950;2023-04-15T10:29:33;40.27;;;28.43;;
26040;SDS011;13816;53.628;9.950;2023-04-15T10:32:02;55.77;;;29.53;;
26040;SDS011;13816;53.628;9.950;2023-04-15T10:34:30;36.33;;;26.63;;
26040;SDS011;13816;53.628;9.950;2023-04-15T10:37:03;40.80;;;27.37;;
26040;SDS011;13816;53.628;9.950;2023-04-15T10:42:07;39.43;;;26.17;;
26040;SDS011;13816;53.628;9.950;2023-04-15T10:44:36;37.17;;;25.13;;
26040;SDS011;13816;53.628;9.950;2023-04-15T10:47:08;38.90;;;25.53;;
26040;SDS011;13816;53.628;9.950;2023-04-15T10:49:44;36.00;;;23.57;;
26040;SDS011;13816;53.628;9.950;2023-04-15T10:52:13;34.50;;;24.00;;
26040;SDS011;13816;53.628;9.950;2023-04-15T10:54:43;30.37;;;24.30;;
26040;SDS011;13816;53.628;9.950;2023-04-15T10:57:21;30.70;;;22.77;;
26040;SDS011;13816;53.628;9.950;2023-04-15T11:02:38;24.17;;;20.53;;
26040;SDS011;13816;53.628;9.950;2023-04-15T11:05:08;27.63;;;20.00;;
26040;SDS011;13816;53.628;9.950;2023-04-15T11:12:46;17.53;;;14.80;;
26040;SDS011;13816;53.628;9.950;2023-04-15T11:17:59;17.57;;;14.00;;
26040;SDS011;13816;53.628;9.950;2023-04-15T11:20:36;20.03;;;13.70;;
26040;SDS011;13816;53.628;9.950;2023-04-15T11:23:05;18.70;;;13.60;;
26040;SDS011;13816;53.628;9.950;2023-04-15T11:25:41;18.73;;;14.70;;
26040;SDS011;13816;53.628;9.950;2023-04-15T11:28:11;18.97;;;14.33;;
26040;SDS011;13816;53.628;9.950;2023-04-15T11:30:40;17.27;;;13.50;;
26040;SDS011;13816;53.628;9.950;2023-04-15T11:33:10;14.40;;;12.20;;
26040;SDS011;13816;53.628;9.950;2023-04-15T11:35:40;14.93;;;13.30;;
26040;SDS011;13816;53.628;9.950;2023-04-15T11:38:10;18.63;;;12.93;;
26040;SDS011;13816;53.628;9.950;2023-04-15T11:40:40;15.83;;;11.80;;
26040;SDS011;13816;53.628;9.950;2023-04-15T11:43:15;18.20;;;12.63;;
26040;SDS011;13816;53.628;9.950;2023-04-15T11:48:16;12.13;;;10.23;;
26040;SDS011;13816;53.628;9.950;2023-04-15T11:50:45;12.67;;;10.67;;
26040;SDS011;13816;53.628;9.950;2023-04-15T11:53:12;11.23;;;10.13;;
26040;SDS011;13816;53.628;9.950;2023-04-15T11:55:44;18.83;;;10.67;;
26040;SDS011;13816;53.628;9.950;2023-04-15T11:58:17;13.70;;;10.03;;
26040;SDS011;13816;53.628;9.950;2023-04-15T12:00:49;14.13;;;10.50;;
26040;SDS011;13816;53.628;9.950;2023-04-15T12:06:04;18.30;;;11.87;;
26040;SDS011;13816;53.628;9.950;2023-04-15T12:13:53;14.23;;;10.80;;
26040;SDS011;13816;53.628;9.950;2023-04-15T12:16:22;20.30;;;11.60;;
26040;SDS011;13816;53.628;9.950;2023-04-15T12:18:54;13.33;;;10.93;;
26040;SDS011;13816;53.628;9.950;2023-04-15T12:21:22;13.43;;;11.37;;
26040;SDS011;13816;53.628;9.950;2023-04-15T12:23:54;13.10;;;11.77;;
26040;SDS011;13816;53.628;9.950;2023-04-15T12:26:28;11.13;;;10.03;;
26040;SDS011;13816;53.628;9.950;2023-04-15T12:28:59;13.23;;;11.27;;
26040;SDS011;13816;53.628;9.950;2023-04-15T12:31:27;12.40;;;11.10;;
26040;SDS011;13816;53.628;9.950;2023-04-15T12:33:58;13.10;;;11.13;;
26040;SDS011;13816;53.628;9.950;2023-04-15T12:36:26;14.30;;;10.73;;
26040;SDS011;13816;53.628;9.950;2023-04-15T12:38:55;14.60;;;11.40;;
26040;SDS011;13816;53.628;9.950;2023-04-15T12:41:23;14.23;;;11.67;;
26040;SDS011;13816;53.628;9.950;2023-04-15T12:43:50;12.10;;;10.50;;
26040;SDS011;13816;53.628;9.950;2023-04-15T12:46:17;13.90;;;11.13;;
26040;SDS011;13816;53.628;9.950;2023-04-15T12:48:46;16.60;;;11.10;;
26040;SDS011;13816;53.628;9.950;2023-04-15T12:51:13;18.17;;;12.13;;
26040;SDS011;13816;53.628;9.950;2023-04-15T12:53:40;15.30;;;12.30;;
26040;SDS011;13816;53.628;9.950;2023-04-15T12:56:10;15.20;;;11.80;;
26040;SDS011;13816;53.628;9.950;2023-04-15T12:58:37;15.00;;;11.53;;
26040;SDS011;13816;53.628;9.950;2023-04-15T13:01:05;14.40;;;11.63;;
26040;SDS011;13816;53.628;9.950;2023-04-15T13:03:32;13.73;;;11.33;;
26040;SDS011;13816;53.628;9.950;2023-04-15T13:06:00;14.07;;;10.83;;
26040;SDS011;13816;53.628;9.950;2023-04-15T13:08:30;14.37;;;12.00;;
26040;SDS011;13816;53.628;9.950;2023-04-15T13:10:59;13.60;;;11.10;;
26040;SDS011;13816;53.628;9.950;2023-04-15T13:13:26;14.07;;;12.03;;
26040;SDS011;13816;53.628;9.950;2023-04-15T13:15:54;17.47;;;11.67;;
26040;SDS011;13816;53.628;9.950;2023-04-15T13:18:21;13.37;;;10.67;;
26040;SDS011;13816;53.628;9.950;2023-04-15T13:20:49;11.97;;;10.23;;
26040;SDS011;13816;53.628;9.950;2023-04-15T13:23:17;15.27;;;11.47;;
26040;SDS011;13816;53.628;9.950;2023-04-15T13:25:44;11.93;;;9.57;;
26040;SDS011;13816;53.628;9.950;2023-04-15T13:28:11;12.37;;;9.73;;
26040;SDS011;13816;53.628;9.950;2023-04-15T13:30:39;11.20;;;9.47;;
26040;SDS011;13816;53.628;9.950;2023-04-15T13:33:06;14.47;;;10.63;;
26040;SDS011;13816;53.628;9.950;2023-04-15T13:35:34;12.80;;;11.37;;
26040;SDS011;13816;53.628;9.950;2023-04-15T13:38:01;12.57;;;10.63;;
26040;SDS011;13816;53.628;9.950;2023-04-15T13:40:28;12.27;;;10.40;;
26040;SDS011;13816;53.628;9.950;2023-04-15T13:42:56;14.23;;;9.70;;
26040;SDS011;13816;53.628;9.950;2023-04-15T13:45:24;11.70;;;10.03;;
26040;SDS011;13816;53.628;9.950;2023-04-15T13:47:52;15.43;;;11.20;;
26040;SDS011;13816;53.628;9.950;2023-04-15T13:50:20;12.30;;;10.50;;
26040;SDS011;13816;53.628;9.950;2023-04-15T13:52:47;12.20;;;9.27;;
26040;SDS011;13816;53.628;9.950;2023-04-15T13:55:15;10.97;;;9.17;;
26040;SDS011;13816;53.628;9.950;2023-04-15T13:57:46;11.03;;;8.47;;
26040;SDS011;13816;53.628;9.950;2023-04-15T14:00:13;10.00;;;9.00;;
26040;SDS011;13816;53.628;9.950;2023-04-15T14:02:40;11.90;;;8.53;;
26040;SDS011;13816;53.628;9.950;2023-04-15T14:05:08;12.10;;;8.87;;
26040;SDS011;13816;53.628;9.950;2023-04-15T14:07:36;9.97;;;8.93;;
26040;SDS011;13816;53.628;9.950;2023-04-15T14:10:03;10.07;;;8.97;;
26040;SDS011;13816;53.628;9.950;2023-04-15T14:12:31;13.70;;;9.40;;
26040;SDS011;13816;53.628;9.950;2023-04-15T14:15:01;10.43;;;9.30;;
26040;SDS011;13816;53.628;9.950;2023-04-15T14:17:28;11.23;;;9.07;;
26040;SDS011;13816;53.628;9.950;2023-04-15T14:19:56;10.70;;;8.63;;
26040;SDS011;13816;53.628;9.950;2023-04-15T14:22:23;9.53;;;8.27;;
26040;SDS011;13816;53.628;9.950;2023-04-15T14:24:51;10.70;;;9.27;;
26040;SDS011;13816;53.628;9.950;2023-04-15T14:27:20;11.43;;;8.87;;
26040;SDS011;13816;53.628;9.950;2023-04-15T14:29:47;13.13;;;10.30;;
26040;SDS011;13816;53.628;9.950;2023-04-15T14:32:14;10.70;;;9.60;;
26040;SDS011;13816;53.628;9.950;2023-04-15T14:34:42;14.10;;;9.80;;
26040;SDS011;13816;53.628;9.950;2023-04-15T14:37:10;12.03;;;8.50;;
26040;SDS011;13816;53.628;9.950;2023-04-15T14:39:37;10.70;;;9.10;;
26040;SDS011;13816;53.628;9.950;2023-04-15T14:42:05;10.60;;;9.13;;
26040;SDS011;13816;53.628;9.950;2023-04-15T14:44:32;12.30;;;10.00;;
26040;SDS011;13816;53.628;9.950;2023-04-15T14:47:02;11.53;;;9.77;;
26040;SDS011;13816;53.628;9.950;2023-04-15T14:49:29;15.10;;;11.63;;
26040;SDS011;13816;53.628;9.950;2023-04-15T14:51:57;13.53;;;10.00;;
26040;SDS011;13816;53.628;9.950;2023-04-15T14:54:24;13.80;;;10.60;;
26040;SDS011;13816;53.628;9.950;2023-04-15T14:56:51;15.17;;;11.73;;
26040;SDS011;13816;53.628;9.950;2023-04-15T14:59:19;10.93;;;9.80;;
26040;SDS011;13816;53.628;9.950;2023-04-15T15:01:46;12.33;;;10.17;;
26040;SDS011;13816;53.628;9.950;2023-04-15T15:04:14;13.23;;;10.17;;
26040;SDS011;13816;53.628;9.950;2023-04-15T15:06:41;13.27;;;9.93;;
26040;SDS011;13816;53.628;9.950;2023-04-15T15:09:09;12.50;;;10.37;;